Governador Jose Richa Airport


Codes: SBLO/LDB
Name: Governador Jose Richa Airport
City: Londrina
Country: Brazil
Elevation: 1867 ft.
Wikipedia:

Photos at Governador Jose Richa Airport


   Photos courtesy of SpottingLog. You can add your own sightings and photos by signing up for a free trial today.



No photos found.

Weather at Governador Jose Richa Airport


Time (UTC)DescriptionTempratureWindCloud coverageVisibilityPressureHumidity
21-Jun-2024 12:00Clear Sky18°C4 mph, E7%10000m1017hPa60%
21-Jun-2024 15:00Scattered Clouds23°C9 mph, NE32%10000m1017hPa38%
21-Jun-2024 18:00Scattered Clouds29°C4 mph, NE26%10000m1014hPa20%
21-Jun-2024 21:00Few Clouds20°C2 mph, SE14%10000m1014hPa34%
22-Jun-2024 00:00Scattered Clouds17°C2 mph, S46%10000m1016hPa39%
22-Jun-2024 03:00Overcast Clouds15°C2 mph, SW91%10000m1016hPa42%
22-Jun-2024 06:00Overcast Clouds14°C2 mph, S95%10000m1015hPa42%
22-Jun-2024 09:00Overcast Clouds13°C2 mph, S100%10000m1016hPa49%
22-Jun-2024 12:00Overcast Clouds18°C2 mph, E100%10000m1018hPa45%
22-Jun-2024 15:00Overcast Clouds26°C9 mph, NE92%10000m1016hPa32%
22-Jun-2024 18:00Overcast Clouds29°C9 mph, N95%10000m1012hPa28%
22-Jun-2024 21:00Overcast Clouds23°C4 mph, NE100%10000m1011hPa41%
23-Jun-2024 00:00Broken Clouds19°C2 mph, SE75%10000m1013hPa51%
23-Jun-2024 03:00Overcast Clouds17°C2 mph, S100%10000m1013hPa56%
23-Jun-2024 06:00Overcast Clouds16°C4 mph, S97%10000m1013hPa59%
23-Jun-2024 09:00Clear Sky14°C0 mph, S7%10000m1014hPa63%
23-Jun-2024 12:00Clear Sky20°C2 mph, NE3%10000m1016hPa47%
23-Jun-2024 15:00Clear Sky28°C7 mph, N0%10000m1014hPa32%
23-Jun-2024 18:00Clear Sky31°C7 mph, NW0%10000m1010hPa24%
23-Jun-2024 21:00Clear Sky24°C2 mph, NW0%10000m1010hPa39%
24-Jun-2024 00:00Clear Sky20°C2 mph, SE0%10000m1012hPa46%
24-Jun-2024 03:00Clear Sky18°C2 mph, SW3%10000m1013hPa53%
24-Jun-2024 06:00Clear Sky17°C0 mph, SW5%10000m1013hPa56%
24-Jun-2024 09:00Scattered Clouds16°C0 mph, SW50%10000m1013hPa59%
24-Jun-2024 12:00Broken Clouds21°C2 mph, NE54%10000m1015hPa46%
24-Jun-2024 15:00Scattered Clouds29°C11 mph, N27%10000m1013hPa28%
24-Jun-2024 18:00Scattered Clouds32°C9 mph, W33%10000m1011hPa24%
24-Jun-2024 21:00Overcast Clouds27°C4 mph, SW98%10000m1011hPa34%
25-Jun-2024 00:00Overcast Clouds23°C4 mph, S87%10000m1014hPa44%
25-Jun-2024 03:00Scattered Clouds19°C4 mph, SW30%10000m1015hPa54%
25-Jun-2024 06:00Scattered Clouds18°C4 mph, S31%10000m1016hPa59%
25-Jun-2024 09:00Overcast Clouds18°C7 mph, E93%10000m1017hPa75%
25-Jun-2024 12:00Broken Clouds19°C11 mph, E58%10000m1019hPa69%
25-Jun-2024 15:00Few Clouds25°C11 mph, E14%10000m1018hPa46%
25-Jun-2024 18:00Clear Sky27°C9 mph, E10%10000m1015hPa41%
25-Jun-2024 21:00Clear Sky22°C9 mph, E4%10000m1016hPa54%
26-Jun-2024 00:00Clear Sky16°C9 mph, SE3%10000m1019hPa73%
26-Jun-2024 03:00Broken Clouds14°C7 mph, SE51%10000m1019hPa85%
26-Jun-2024 06:00Scattered Clouds12°C4 mph, SE31%10000m1018hPa92%
26-Jun-2024 09:00Clear Sky11°C2 mph, SE5%10000m1017hPa97%